createdAt,value
2022-08-20T00:01:46.029Z,1.77
2022-08-20T00:04:15.651Z,2.30
2022-08-20T00:06:51.035Z,1.60
2022-08-20T00:09:20.641Z,1.73
2022-08-20T00:11:50.217Z,1.50
2022-08-20T00:14:19.910Z,1.90
2022-08-20T00:16:50.277Z,1.50
2022-08-20T00:19:21.471Z,1.60
2022-08-20T00:21:57.922Z,1.60
2022-08-20T00:24:27.809Z,1.80
2022-08-20T00:26:57.420Z,1.42
2022-08-20T00:29:31.561Z,1.48
2022-08-20T00:32:01.181Z,1.70
2022-08-20T00:34:30.735Z,1.80
2022-08-20T00:37:03.294Z,1.70
2022-08-20T00:39:32.879Z,1.80
2022-08-20T00:42:02.564Z,1.52
2022-08-20T00:44:32.255Z,1.77
2022-08-20T00:47:01.944Z,1.70
2022-08-20T00:49:32.792Z,1.70
2022-08-20T00:54:37.284Z,1.80
2022-08-20T00:57:10.665Z,1.60
2022-08-20T00:59:41.316Z,1.90
2022-08-20T01:02:12.305Z,2.00
2022-08-20T01:04:44.050Z,1.73
2022-08-20T01:07:16.198Z,2.00
2022-08-20T01:09:57.932Z,1.90
2022-08-20T01:12:29.413Z,1.92
2022-08-20T01:14:59.268Z,1.75
2022-08-20T01:17:29.600Z,1.70
2022-08-20T01:20:01.359Z,1.98
2022-08-20T01:22:50.877Z,1.80
2022-08-20T01:25:23.907Z,1.60
2022-08-20T01:27:56.338Z,1.77
2022-08-20T01:30:27.932Z,1.73
2022-08-20T01:32:57.591Z,1.80
2022-08-20T01:35:27.545Z,1.73
2022-08-20T01:37:57.384Z,1.90
2022-08-20T01:40:47.409Z,2.00
2022-08-20T01:43:19.605Z,1.80
2022-08-20T01:45:51.662Z,1.80
2022-08-20T01:48:22.147Z,2.00
2022-08-20T01:50:56.196Z,1.67
2022-08-20T01:53:29.630Z,1.75
2022-08-20T01:55:59.195Z,1.60
2022-08-20T01:58:31.452Z,1.80
2022-08-20T02:01:01.338Z,1.50
2022-08-20T02:03:36.583Z,1.67
2022-08-20T02:06:08.207Z,1.60
2022-08-20T02:08:37.803Z,1.60
2022-08-20T02:11:08.032Z,1.60
2022-08-20T02:13:40.978Z,1.48
2022-08-20T02:16:10.806Z,1.52
2022-08-20T02:18:40.433Z,1.80
2022-08-20T02:21:10.019Z,1.70
2022-08-20T02:23:39.612Z,1.67
2022-08-20T02:26:09.845Z,1.63
2022-08-20T02:28:42.046Z,1.70
2022-08-20T02:31:11.925Z,1.60
2022-08-20T02:33:41.509Z,1.70
2022-08-20T02:36:31.070Z,1.65
2022-08-20T02:39:00.687Z,1.60
2022-08-20T02:41:30.339Z,1.60
2022-08-20T02:44:02.539Z,1.60
2022-08-20T02:46:32.113Z,1.60
2022-08-20T02:49:01.719Z,1.58
2022-08-20T02:51:31.325Z,1.63
2022-08-20T02:54:01.022Z,1.70
2022-08-20T02:59:03.703Z,1.55
2022-08-20T03:01:33.657Z,1.60
2022-08-20T03:04:03.688Z,1.60
2022-08-20T03:06:33.263Z,1.50
2022-08-20T03:09:05.377Z,1.58
2022-08-20T03:11:35.079Z,1.55
2022-08-20T03:14:07.842Z,1.40
2022-08-20T03:16:37.447Z,1.48
2022-08-20T03:19:08.611Z,1.48
2022-08-20T03:21:38.173Z,1.40
2022-08-20T03:24:08.000Z,1.40
2022-08-20T03:26:37.593Z,1.40
2022-08-20T03:29:09.775Z,1.48
2022-08-20T03:31:39.385Z,1.35
2022-08-20T03:34:08.970Z,1.40
2022-08-20T03:36:38.568Z,1.25
2022-08-20T03:39:11.763Z,1.30
2022-08-20T03:41:41.368Z,1.30
2022-08-20T03:44:13.554Z,1.38
2022-08-20T03:46:43.203Z,1.40
2022-08-20T03:49:12.832Z,1.30
2022-08-20T03:51:51.494Z,1.40
2022-08-20T03:54:31.929Z,1.50
2022-08-20T03:57:02.963Z,1.40
2022-08-20T03:59:44.650Z,1.30
2022-08-20T04:02:14.319Z,1.30
2022-08-20T04:04:43.936Z,1.40
2022-08-20T04:07:13.982Z,1.30
2022-08-20T04:09:44.200Z,1.30
2022-08-20T04:12:15.203Z,1.40
2022-08-20T04:14:47.374Z,1.50
2022-08-20T04:17:16.969Z,1.50
2022-08-20T04:19:46.691Z,1.30
2022-08-20T04:22:16.566Z,1.48
2022-08-20T04:24:46.265Z,1.35
2022-08-20T04:27:15.847Z,1.60
2022-08-20T04:29:48.034Z,1.42
2022-08-20T04:32:17.930Z,1.20
2022-08-20T04:34:47.619Z,1.40
2022-08-20T04:37:17.567Z,1.60
2022-08-20T04:40:07.476Z,1.53
2022-08-20T04:42:36.316Z,1.40
2022-08-20T04:45:10.114Z,1.48
2022-08-20T04:47:39.667Z,1.40
2022-08-20T04:50:11.798Z,1.30
2022-08-20T04:52:44.167Z,1.40
2022-08-20T04:55:13.869Z,1.58
2022-08-20T04:57:43.428Z,1.40
2022-08-20T05:00:17.919Z,1.55
2022-08-20T05:02:47.484Z,1.50
2022-08-20T05:05:17.097Z,1.50
2022-08-20T05:07:47.461Z,1.40
2022-08-20T05:10:18.038Z,1.50
2022-08-20T05:12:57.031Z,1.40
2022-08-20T05:15:29.525Z,1.40
2022-08-20T05:18:00.716Z,1.38
2022-08-20T05:20:31.796Z,1.20
2022-08-20T05:25:32.040Z,1.70
2022-08-20T05:28:01.722Z,1.60
2022-08-20T05:30:34.099Z,1.80
2022-08-20T05:33:03.926Z,1.88
2022-08-20T05:35:34.506Z,2.10
2022-08-20T05:38:04.145Z,2.03
2022-08-20T05:40:33.772Z,1.92
2022-08-20T05:43:04.865Z,2.25
2022-08-20T05:45:37.652Z,2.20
2022-08-20T05:48:08.156Z,2.13
2022-08-20T05:50:38.247Z,2.22
2022-08-20T05:53:07.889Z,2.30
2022-08-20T05:55:37.738Z,2.40
2022-08-20T05:58:09.033Z,2.40
2022-08-20T06:00:41.289Z,2.30
2022-08-20T06:03:23.370Z,1.83
2022-08-20T06:05:52.993Z,1.90
2022-08-20T06:08:22.909Z,1.73
2022-08-20T06:10:52.517Z,1.70
2022-08-20T06:13:22.089Z,1.88
2022-08-20T06:15:54.313Z,2.00
2022-08-20T06:18:27.883Z,1.83
2022-08-20T06:20:58.458Z,2.10
2022-08-20T06:23:28.049Z,2.10
2022-08-20T06:26:24.931Z,2.40
2022-08-20T06:29:00.404Z,2.25
2022-08-20T06:31:32.805Z,2.70
2022-08-20T06:34:02.443Z,2.40
2022-08-20T06:36:32.049Z,2.50
2022-08-20T06:39:01.663Z,2.20
2022-08-20T06:41:36.250Z,2.50
2022-08-20T06:44:07.583Z,2.50
2022-08-20T06:46:40.205Z,2.50
2022-08-20T06:49:10.023Z,2.50
2022-08-20T06:51:41.287Z,2.30
2022-08-20T06:54:11.165Z,2.33
2022-08-20T06:56:40.847Z,2.40
2022-08-20T06:59:10.402Z,2.28
2022-08-20T07:01:42.637Z,2.10
2022-08-20T07:04:12.231Z,2.20
2022-08-20T07:06:41.872Z,2.30
2022-08-20T07:09:11.465Z,2.10
2022-08-20T07:11:41.483Z,2.50
2022-08-20T07:14:11.941Z,2.60
2022-08-20T07:16:44.177Z,2.00
2022-08-20T07:19:13.836Z,2.30
2022-08-20T07:21:43.434Z,2.00
2022-08-20T07:24:13.047Z,2.20
2022-08-20T07:26:42.635Z,2.10
2022-08-20T07:29:12.175Z,1.92
2022-08-20T07:31:56.776Z,2.10
2022-08-20T07:34:26.441Z,1.95
2022-08-20T07:36:55.996Z,2.08
2022-08-20T07:39:25.783Z,2.08
2022-08-20T07:42:03.382Z,1.90
2022-08-20T07:44:33.097Z,2.20
2022-08-20T07:47:06.585Z,2.00
2022-08-20T07:49:39.788Z,2.03
2022-08-20T07:52:09.725Z,1.77
2022-08-20T07:54:40.016Z,1.60
2022-08-20T07:57:12.191Z,2.03
2022-08-20T07:59:41.790Z,1.80
2022-08-20T08:02:13.921Z,1.70
2022-08-20T08:04:43.539Z,2.00
2022-08-20T08:07:13.099Z,1.80
2022-08-20T08:09:44.007Z,1.70
2022-08-20T08:14:43.417Z,1.70
2022-08-20T08:17:15.613Z,1.60
2022-08-20T08:19:49.090Z,1.60
2022-08-20T08:22:20.974Z,1.80
2022-08-20T08:24:56.741Z,1.65
2022-08-20T08:27:27.047Z,1.40
2022-08-20T08:29:56.656Z,1.20
2022-08-20T08:32:28.995Z,1.30
2022-08-20T08:34:58.517Z,1.30
2022-08-20T08:37:30.851Z,1.00
2022-08-20T08:40:01.514Z,1.20
2022-08-20T08:42:44.093Z,1.10
2022-08-20T08:45:13.671Z,1.10
2022-08-20T08:47:45.867Z,0.90
2022-08-20T08:50:49.944Z,0.80
2022-08-20T08:53:19.466Z,0.70
2022-08-20T08:55:49.152Z,0.60
2022-08-20T08:58:18.714Z,0.73
2022-08-20T09:00:56.521Z,0.60
2022-08-20T09:03:36.625Z,0.65
2022-08-20T09:06:07.495Z,0.80
2022-08-20T09:08:41.845Z,0.73
2022-08-20T09:11:11.445Z,0.70
2022-08-20T09:13:43.144Z,0.77
2022-08-20T09:16:12.744Z,0.77
2022-08-20T09:18:44.928Z,0.75
2022-08-20T09:21:14.700Z,0.60
2022-08-20T09:23:44.302Z,0.85
2022-08-20T09:26:13.912Z,0.70
2022-08-20T09:28:43.460Z,0.70
2022-08-20T09:31:13.081Z,0.80
2022-08-20T09:33:48.225Z,0.80
2022-08-20T09:36:31.977Z,0.70
2022-08-20T09:39:02.895Z,0.50
2022-08-20T09:41:33.882Z,0.70
2022-08-20T09:44:04.320Z,0.80
2022-08-20T09:46:33.932Z,0.60
2022-08-20T09:49:06.088Z,0.70
2022-08-20T09:51:38.544Z,0.60
2022-08-20T09:54:08.335Z,0.77
2022-08-20T09:56:38.522Z,0.70
2022-08-20T09:59:08.104Z,0.70
2022-08-20T10:01:37.689Z,0.63
2022-08-20T10:04:09.907Z,0.70
2022-08-20T10:06:41.749Z,0.73
2022-08-20T10:09:11.332Z,0.52
2022-08-20T10:11:40.973Z,1.02
2022-08-20T10:14:10.842Z,0.75
2022-08-20T10:16:40.417Z,0.90
2022-08-20T10:19:12.639Z,0.77
2022-08-20T10:21:42.251Z,0.70
2022-08-20T10:24:12.794Z,0.80
2022-08-20T10:26:42.391Z,0.60
2022-08-20T10:29:11.999Z,0.70
2022-08-20T10:31:41.626Z,0.50
2022-08-20T10:34:13.792Z,0.60
2022-08-20T10:36:44.767Z,0.60
2022-08-20T10:39:14.459Z,0.63
2022-08-20T10:41:44.021Z,0.63
2022-08-20T10:44:13.565Z,0.60
2022-08-20T10:46:43.120Z,0.70
2022-08-20T10:49:15.281Z,0.88
2022-08-20T10:51:44.850Z,0.77
2022-08-20T10:54:17.179Z,0.55
2022-08-20T10:56:46.764Z,0.73
2022-08-20T10:59:16.339Z,0.88
2022-08-20T11:01:45.971Z,0.70
2022-08-20T11:04:18.268Z,0.80
2022-08-20T11:06:47.813Z,0.70
2022-08-20T11:09:17.407Z,0.85
2022-08-20T11:11:47.012Z,0.80
2022-08-20T11:14:16.722Z,0.82
2022-08-20T11:16:46.274Z,0.80
2022-08-20T11:19:18.437Z,0.75
2022-08-20T11:21:48.036Z,0.85
2022-08-20T11:24:18.993Z,1.08
2022-08-20T11:26:48.991Z,0.88
2022-08-20T11:29:18.625Z,1.00
2022-08-20T11:31:48.185Z,1.10
2022-08-20T11:34:20.392Z,1.00
2022-08-20T11:36:49.975Z,1.10
2022-08-20T11:39:19.569Z,1.02
2022-08-20T11:41:49.334Z,1.00
2022-08-20T11:44:24.925Z,1.05
2022-08-20T11:46:54.461Z,1.00
2022-08-20T11:49:26.748Z,1.20
2022-08-20T11:51:56.441Z,1.05
2022-08-20T11:54:28.923Z,1.30
2022-08-20T11:56:59.617Z,1.10
2022-08-20T11:59:29.222Z,1.30
2022-08-20T12:02:02.692Z,1.13
2022-08-20T12:04:35.525Z,1.20
2022-08-20T12:07:12.831Z,1.15
2022-08-20T12:09:51.107Z,1.02
2022-08-20T12:12:22.325Z,1.23
2022-08-20T12:14:51.937Z,1.17
2022-08-20T12:17:24.115Z,1.30
2022-08-20T12:19:57.220Z,1.20
2022-08-20T12:22:26.952Z,1.20
2022-08-20T12:24:56.705Z,0.90
2022-08-20T12:27:27.156Z,1.30
2022-08-20T12:29:57.827Z,1.10
2022-08-20T12:32:30.630Z,0.90
2022-08-20T12:35:02.851Z,1.10
2022-08-20T12:37:32.966Z,1.00
2022-08-20T12:40:03.394Z,0.90
2022-08-20T12:42:33.208Z,1.20
2022-08-20T12:45:02.913Z,1.23
2022-08-20T12:47:33.209Z,1.00
2022-08-20T12:50:06.877Z,1.17
2022-08-20T12:52:36.617Z,1.27
2022-08-20T12:55:06.871Z,1.13
2022-08-20T12:57:37.963Z,0.90
2022-08-20T13:00:10.838Z,1.13
2022-08-20T13:02:41.303Z,1.23
2022-08-20T13:07:44.070Z,1.17
2022-08-20T13:10:15.528Z,1.25
2022-08-20T13:12:45.202Z,1.30
2022-08-20T13:15:15.199Z,1.10
2022-08-20T13:17:44.937Z,1.00
2022-08-20T13:20:18.723Z,1.17
2022-08-20T13:22:48.318Z,1.00
2022-08-20T13:25:17.900Z,1.10
2022-08-20T13:27:47.560Z,1.00
2022-08-20T13:30:19.852Z,1.20
2022-08-20T13:32:49.530Z,0.90
2022-08-20T13:35:22.229Z,0.93
2022-08-20T13:37:52.091Z,1.00
2022-08-20T13:40:21.882Z,1.10
2022-08-20T13:42:51.493Z,1.30
2022-08-20T13:45:21.183Z,1.30
2022-08-20T13:47:53.695Z,1.20
2022-08-20T13:50:27.470Z,1.08
2022-08-20T13:52:57.363Z,1.10
2022-08-20T13:55:28.227Z,1.40
2022-08-20T13:57:58.906Z,1.30
2022-08-20T14:00:31.849Z,1.50
2022-08-20T14:03:02.051Z,1.30
2022-08-20T14:05:34.414Z,1.30
2022-08-20T14:08:08.648Z,1.30
2022-08-20T14:10:38.457Z,1.20
2022-08-20T14:13:11.231Z,1.40
2022-08-20T14:15:44.361Z,1.30
2022-08-20T14:18:14.448Z,1.60
2022-08-20T14:20:47.052Z,1.30
2022-08-20T14:23:16.633Z,1.30
2022-08-20T14:25:47.904Z,1.30
2022-08-20T14:28:18.914Z,1.60
2022-08-20T14:30:52.710Z,1.50
2022-08-20T14:33:23.408Z,1.33
2022-08-20T14:35:55.847Z,1.25
2022-08-20T14:38:25.462Z,1.30
2022-08-20T14:40:55.627Z,1.67
2022-08-20T14:43:25.158Z,1.20
2022-08-20T14:45:55.020Z,1.25
2022-08-20T14:48:25.597Z,1.27
2022-08-20T14:50:59.575Z,1.20
2022-08-20T14:53:29.227Z,1.52
2022-08-20T14:55:58.813Z,1.30
2022-08-20T14:58:28.759Z,1.27
2022-08-20T15:00:58.395Z,1.40
2022-08-20T15:03:30.617Z,1.50
2022-08-20T15:06:03.236Z,1.50
2022-08-20T15:08:32.780Z,1.42
2022-08-20T15:11:02.537Z,1.40
2022-08-20T15:13:32.096Z,1.50
2022-08-20T15:16:02.001Z,1.70
2022-08-20T15:18:32.086Z,1.60
2022-08-20T15:21:04.255Z,1.85
2022-08-20T15:23:39.881Z,1.70
2022-08-20T15:26:09.744Z,1.80
2022-08-20T15:28:39.326Z,1.80
2022-08-20T15:31:11.630Z,1.83
2022-08-20T15:33:41.276Z,1.90
2022-08-20T15:36:13.827Z,1.93
2022-08-20T15:38:43.438Z,2.00
2022-08-20T15:41:13.114Z,1.97
2022-08-20T15:43:42.726Z,1.75
2022-08-20T15:46:12.299Z,1.80
2022-08-20T15:48:42.819Z,2.07
2022-08-20T15:53:58.323Z,1.90
2022-08-20T15:56:35.294Z,2.28
2022-08-20T15:59:11.952Z,1.73
2022-08-20T16:01:47.874Z,1.80
2022-08-20T16:04:53.092Z,2.05
2022-08-20T16:07:27.691Z,2.00
2022-08-20T16:10:04.240Z,1.90
2022-08-20T16:12:35.919Z,1.90
2022-08-20T16:15:10.747Z,2.05
2022-08-20T16:17:42.454Z,2.17
2022-08-20T16:20:14.449Z,2.15
2022-08-20T16:22:47.904Z,2.00
2022-08-20T16:25:17.852Z,2.05
2022-08-20T16:27:52.298Z,2.20
2022-08-20T16:30:23.510Z,2.10
2022-08-20T16:32:56.179Z,2.03
2022-08-20T16:35:30.275Z,2.13
2022-08-20T16:38:06.849Z,2.10
2022-08-20T16:40:38.381Z,2.10
2022-08-20T16:43:08.786Z,2.25
2022-08-20T16:45:43.497Z,1.90
2022-08-20T16:48:15.292Z,2.13
2022-08-20T16:50:50.865Z,2.10
2022-08-20T16:53:24.180Z,2.00
2022-08-20T16:55:53.781Z,2.10
2022-08-20T16:58:23.405Z,2.30
2022-08-20T17:00:53.950Z,2.20
2022-08-20T17:06:18.481Z,2.35
2022-08-20T17:08:52.691Z,2.40
2022-08-20T17:11:27.192Z,2.20
2022-08-20T17:14:10.346Z,2.20
2022-08-20T17:16:43.350Z,2.40
2022-08-20T17:19:17.869Z,2.50
2022-08-20T17:21:50.172Z,2.42
2022-08-20T17:24:26.208Z,2.35
2022-08-20T17:27:00.780Z,2.45
2022-08-20T17:29:31.727Z,2.20
2022-08-20T17:32:02.093Z,2.28
2022-08-20T17:34:33.042Z,2.38
2022-08-20T17:37:04.745Z,2.42
2022-08-20T17:39:37.054Z,2.40
2022-08-20T17:42:08.960Z,2.30
2022-08-20T17:44:40.485Z,2.35
2022-08-20T17:47:13.335Z,2.47
2022-08-20T17:49:54.978Z,2.70
2022-08-20T17:52:33.971Z,2.50
2022-08-20T17:55:06.528Z,2.65
2022-08-20T17:57:38.630Z,2.38
2022-08-20T18:00:14.078Z,2.60
2022-08-20T18:02:43.717Z,2.20
2022-08-20T18:05:17.067Z,2.60
2022-08-20T18:07:50.827Z,2.42
2022-08-20T18:10:24.255Z,2.67
2022-08-20T18:12:57.380Z,2.25
2022-08-20T18:15:28.578Z,2.40
2022-08-20T18:18:09.253Z,2.50
2022-08-20T18:20:57.613Z,2.17
2022-08-20T18:23:29.140Z,2.20
2022-08-20T18:26:05.383Z,2.50
2022-08-20T18:28:38.776Z,2.40
2022-08-20T18:31:10.481Z,2.42
2022-08-20T18:33:42.142Z,2.40
2022-08-20T18:36:13.512Z,2.35
2022-08-20T18:38:44.632Z,2.47
2022-08-20T18:41:18.594Z,2.67
2022-08-20T18:43:48.332Z,2.40
2022-08-20T18:46:23.731Z,2.50
2022-08-20T18:48:58.346Z,2.55
2022-08-20T18:51:32.031Z,2.67
2022-08-20T18:54:01.635Z,2.45
2022-08-20T18:56:39.556Z,2.58
2022-08-20T18:59:12.979Z,2.75
2022-08-20T19:01:43.214Z,3.00
2022-08-20T19:04:19.782Z,2.55
2022-08-20T19:06:55.503Z,2.90
2022-08-20T19:09:35.750Z,2.33
2022-08-20T19:12:28.416Z,2.65
2022-08-20T19:15:03.475Z,2.75
2022-08-20T19:17:56.317Z,2.50
2022-08-20T19:20:26.967Z,2.55
2022-08-20T19:22:57.473Z,2.50
2022-08-20T19:25:30.251Z,2.58
2022-08-20T19:28:04.045Z,2.72
2022-08-20T19:30:36.621Z,2.75
2022-08-20T19:33:06.435Z,2.80
2022-08-20T19:35:36.376Z,2.75
2022-08-20T19:38:06.287Z,2.55
2022-08-20T19:40:39.309Z,2.50
2022-08-20T19:43:14.997Z,2.40
2022-08-20T19:45:47.891Z,2.70
2022-08-20T19:48:32.099Z,2.55
2022-08-20T19:51:05.917Z,2.70
2022-08-20T19:53:36.653Z,2.70
2022-08-20T19:58:41.751Z,2.80
2022-08-20T20:01:13.137Z,2.45
2022-08-20T20:03:42.751Z,2.42
2022-08-20T20:06:17.314Z,2.80
2022-08-20T20:08:48.415Z,2.70
2022-08-20T20:11:19.981Z,2.90
2022-08-20T20:13:52.178Z,2.60
2022-08-20T20:16:23.113Z,2.95
2022-08-20T20:19:15.569Z,2.50
2022-08-20T20:21:43.527Z,2.80
2022-08-20T20:26:43.760Z,3.00
2022-08-20T20:31:51.120Z,2.60
2022-08-20T20:34:21.766Z,2.72
2022-08-20T20:36:51.343Z,2.53
2022-08-20T20:39:30.305Z,2.50
2022-08-20T20:42:01.750Z,2.63
2022-08-20T20:44:37.292Z,2.70
2022-08-20T20:47:08.559Z,2.95
2022-08-20T20:49:50.152Z,2.72
2022-08-20T20:52:24.019Z,2.58
2022-08-20T20:54:53.614Z,2.80
2022-08-20T20:57:37.940Z,2.65
2022-08-20T21:00:14.415Z,2.63
2022-08-20T21:02:44.047Z,2.17
2022-08-20T21:05:13.955Z,2.47
2022-08-20T21:07:50.653Z,2.43
2022-08-20T21:10:21.054Z,2.20
2022-08-20T21:12:53.129Z,1.83
2022-08-20T21:15:26.512Z,2.47
2022-08-20T21:17:56.189Z,2.25
2022-08-20T21:20:25.760Z,2.30
2022-08-20T21:22:57.288Z,2.00
2022-08-20T21:25:27.139Z,1.88
2022-08-20T21:27:56.727Z,2.28
2022-08-20T21:30:28.972Z,1.90
2022-08-20T21:32:58.724Z,2.03
2022-08-20T21:35:28.500Z,2.20
2022-08-20T21:37:58.103Z,2.00
2022-08-20T21:40:28.355Z,2.30
2022-08-20T21:42:58.600Z,2.17
2022-08-20T21:45:30.851Z,2.03
2022-08-20T21:48:01.296Z,2.40
2022-08-20T21:50:30.855Z,2.00
2022-08-20T21:53:00.541Z,2.13
2022-08-20T21:55:35.027Z,2.20
2022-08-20T21:58:07.303Z,2.13
2022-08-20T22:00:55.445Z,2.08
2022-08-20T22:03:25.857Z,2.03
2022-08-20T22:05:55.485Z,2.05
2022-08-20T22:08:28.504Z,1.80
2022-08-20T22:10:58.423Z,2.28
2022-08-20T22:13:31.410Z,2.25
2022-08-20T22:16:03.959Z,2.47
2022-08-20T22:18:33.661Z,2.30
2022-08-20T22:21:03.211Z,2.10
2022-08-20T22:23:33.043Z,2.00
2022-08-20T22:26:02.647Z,2.10
2022-08-20T22:28:32.575Z,2.08
2022-08-20T22:31:04.874Z,2.00
2022-08-20T22:33:34.624Z,2.15
2022-08-20T22:36:04.426Z,2.28
2022-08-20T22:38:34.001Z,1.95
2022-08-20T22:41:09.000Z,2.13
2022-08-20T22:43:46.182Z,2.22
2022-08-20T22:46:29.976Z,1.95
2022-08-20T22:48:59.570Z,1.90
2022-08-20T22:51:30.592Z,2.10
2022-08-20T22:54:00.725Z,2.00
2022-08-20T22:56:30.303Z,2.10
2022-08-20T22:59:00.489Z,2.05
2022-08-20T23:01:33.215Z,2.00
2022-08-20T23:04:06.639Z,2.33
2022-08-20T23:06:36.191Z,2.70
2022-08-20T23:09:06.012Z,2.15
2022-08-20T23:11:35.561Z,2.20
2022-08-20T23:14:05.129Z,2.25
2022-08-20T23:16:44.747Z,2.13
2022-08-20T23:19:16.099Z,2.30
2022-08-20T23:21:45.646Z,1.85
2022-08-20T23:24:15.220Z,2.10
2022-08-20T23:26:52.588Z,2.10
2022-08-20T23:29:25.903Z,2.03
2022-08-20T23:31:58.667Z,2.00
2022-08-20T23:34:28.481Z,2.08
2022-08-20T23:36:58.524Z,2.05
2022-08-20T23:39:28.611Z,2.70
2022-08-20T23:41:58.199Z,3.15
2022-08-20T23:44:27.798Z,2.63
2022-08-20T23:47:01.382Z,2.45
2022-08-20T23:49:31.038Z,2.40
2022-08-20T23:52:00.822Z,2.38
2022-08-20T23:54:30.911Z,2.53
2022-08-20T23:57:00.459Z,3.20
2022-08-20T23:59:30.024Z,2.70
